sensor_id;sensor_type;location;lat;lon;timestamp;P1;durP1;ratioP1;P2;durP2;ratioP2
19758;SDS011;10038;42.662;23.278;2023-03-05T00:01:49;32.40;;;14.50;;
19758;SDS011;10038;42.662;23.278;2023-03-05T00:04:17;44.43;;;16.23;;
19758;SDS011;10038;42.662;23.278;2023-03-05T00:06:49;27.77;;;15.73;;
19758;SDS011;10038;42.662;23.278;2023-03-05T00:09:29;27.90;;;14.50;;
19758;SDS011;10038;42.662;23.278;2023-03-05T00:11:56;26.97;;;14.40;;
19758;SDS011;10038;42.662;23.278;2023-03-05T00:14:24;24.10;;;14.87;;
19758;SDS011;10038;42.662;23.278;2023-03-05T00:16:51;31.17;;;14.97;;
19758;SDS011;10038;42.662;23.278;2023-03-05T00:19:18;29.53;;;15.90;;
19758;SDS011;10038;42.662;23.278;2023-03-05T00:21:45;26.27;;;14.67;;
19758;SDS011;10038;42.662;23.278;2023-03-05T00:24:17;29.07;;;15.87;;
19758;SDS011;10038;42.662;23.278;2023-03-05T00:26:44;23.60;;;13.10;;
19758;SDS011;10038;42.662;23.278;2023-03-05T00:29:14;25.37;;;13.67;;
19758;SDS011;10038;42.662;23.278;2023-03-05T00:31:42;27.77;;;14.70;;
19758;SDS011;10038;42.662;23.278;2023-03-05T00:34:10;26.20;;;13.30;;
19758;SDS011;10038;42.662;23.278;2023-03-05T00:36:40;28.20;;;15.20;;
19758;SDS011;10038;42.662;23.278;2023-03-05T00:39:08;27.87;;;14.57;;
19758;SDS011;10038;42.662;23.278;2023-03-05T00:41:39;27.50;;;16.00;;
19758;SDS011;10038;42.662;23.278;2023-03-05T00:44:06;31.23;;;14.80;;
19758;SDS011;10038;42.662;23.278;2023-03-05T00:46:33;27.23;;;14.07;;
19758;SDS011;10038;42.662;23.278;2023-03-05T00:49:00;31.07;;;14.00;;
19758;SDS011;10038;42.662;23.278;2023-03-05T00:51:27;31.33;;;15.00;;
19758;SDS011;10038;42.662;23.278;2023-03-05T00:53:54;27.10;;;14.83;;
19758;SDS011;10038;42.662;23.278;2023-03-05T00:56:20;23.23;;;12.43;;
19758;SDS011;10038;42.662;23.278;2023-03-05T00:58:48;24.13;;;13.73;;
19758;SDS011;10038;42.662;23.278;2023-03-05T01:01:20;25.53;;;13.47;;
19758;SDS011;10038;42.662;23.278;2023-03-05T01:03:49;24.67;;;13.37;;
19758;SDS011;10038;42.662;23.278;2023-03-05T01:06:20;29.37;;;12.50;;
19758;SDS011;10038;42.662;23.278;2023-03-05T01:08:47;23.87;;;11.97;;
19758;SDS011;10038;42.662;23.278;2023-03-05T01:11:20;24.03;;;14.20;;
19758;SDS011;10038;42.662;23.278;2023-03-05T01:13:50;20.47;;;11.83;;
19758;SDS011;10038;42.662;23.278;2023-03-05T01:16:17;29.30;;;12.93;;
19758;SDS011;10038;42.662;23.278;2023-03-05T01:18:47;27.63;;;12.70;;
19758;SDS011;10038;42.662;23.278;2023-03-05T01:21:13;21.87;;;13.00;;
19758;SDS011;10038;42.662;23.278;2023-03-05T01:23:50;26.50;;;12.50;;
19758;SDS011;10038;42.662;23.278;2023-03-05T01:26:18;28.83;;;15.10;;
19758;SDS011;10038;42.662;23.278;2023-03-05T01:28:45;26.37;;;13.90;;
19758;SDS011;10038;42.662;23.278;2023-03-05T01:31:15;24.17;;;12.67;;
19758;SDS011;10038;42.662;23.278;2023-03-05T01:33:41;28.87;;;12.27;;
19758;SDS011;10038;42.662;23.278;2023-03-05T01:36:08;19.13;;;10.93;;
19758;SDS011;10038;42.662;23.278;2023-03-05T01:38:39;22.93;;;12.57;;
19758;SDS011;10038;42.662;23.278;2023-03-05T01:41:06;25.93;;;12.53;;
19758;SDS011;10038;42.662;23.278;2023-03-05T01:43:34;29.43;;;13.00;;
19758;SDS011;10038;42.662;23.278;2023-03-05T01:46:26;26.37;;;13.30;;
19758;SDS011;10038;42.662;23.278;2023-03-05T01:48:55;21.10;;;12.90;;
19758;SDS011;10038;42.662;23.278;2023-03-05T01:51:23;23.80;;;12.47;;
19758;SDS011;10038;42.662;23.278;2023-03-05T01:54:01;25.40;;;13.97;;
19758;SDS011;10038;42.662;23.278;2023-03-05T01:56:28;22.53;;;12.17;;
19758;SDS011;10038;42.662;23.278;2023-03-05T01:58:56;21.90;;;11.60;;
19758;SDS011;10038;42.662;23.278;2023-03-05T02:01:29;22.57;;;12.17;;
19758;SDS011;10038;42.662;23.278;2023-03-05T02:03:58;24.47;;;12.13;;
19758;SDS011;10038;42.662;23.278;2023-03-05T02:06:29;22.70;;;12.07;;
19758;SDS011;10038;42.662;23.278;2023-03-05T02:08:58;23.20;;;11.30;;
19758;SDS011;10038;42.662;23.278;2023-03-05T02:11:25;23.43;;;13.00;;
19758;SDS011;10038;42.662;23.278;2023-03-05T02:13:54;24.30;;;12.60;;
19758;SDS011;10038;42.662;23.278;2023-03-05T02:16:22;23.80;;;12.30;;
19758;SDS011;10038;42.662;23.278;2023-03-05T02:18:50;26.17;;;13.00;;
19758;SDS011;10038;42.662;23.278;2023-03-05T02:21:27;25.37;;;12.20;;
19758;SDS011;10038;42.662;23.278;2023-03-05T02:23:56;23.33;;;10.60;;
19758;SDS011;10038;42.662;23.278;2023-03-05T02:26:22;24.07;;;12.57;;
19758;SDS011;10038;42.662;23.278;2023-03-05T02:28:49;26.03;;;12.87;;
19758;SDS011;10038;42.662;23.278;2023-03-05T02:31:22;28.97;;;12.03;;
19758;SDS011;10038;42.662;23.278;2023-03-05T02:33:55;26.20;;;10.90;;
19758;SDS011;10038;42.662;23.278;2023-03-05T02:36:22;23.20;;;13.23;;
19758;SDS011;10038;42.662;23.278;2023-03-05T02:38:50;20.17;;;10.90;;
19758;SDS011;10038;42.662;23.278;2023-03-05T02:41:24;25.07;;;12.27;;
19758;SDS011;10038;42.662;23.278;2023-03-05T02:44:01;19.57;;;10.10;;
19758;SDS011;10038;42.662;23.278;2023-03-05T02:46:27;27.27;;;12.30;;
19758;SDS011;10038;42.662;23.278;2023-03-05T02:49:01;23.83;;;12.60;;
19758;SDS011;10038;42.662;23.278;2023-03-05T02:51:30;24.53;;;14.00;;
19758;SDS011;10038;42.662;23.278;2023-03-05T02:54:06;24.90;;;12.67;;
19758;SDS011;10038;42.662;23.278;2023-03-05T02:56:46;25.50;;;12.70;;
19758;SDS011;10038;42.662;23.278;2023-03-05T02:59:17;28.80;;;13.27;;
19758;SDS011;10038;42.662;23.278;2023-03-05T03:01:44;25.43;;;12.50;;
19758;SDS011;10038;42.662;23.278;2023-03-05T03:04:10;38.30;;;16.10;;
19758;SDS011;10038;42.662;23.278;2023-03-05T03:06:38;35.77;;;17.37;;
19758;SDS011;10038;42.662;23.278;2023-03-05T03:09:06;34.33;;;14.20;;
19758;SDS011;10038;42.662;23.278;2023-03-05T03:11:33;36.43;;;15.67;;
19758;SDS011;10038;42.662;23.278;2023-03-05T03:14:00;29.60;;;15.47;;
19758;SDS011;10038;42.662;23.278;2023-03-05T03:16:29;32.90;;;15.40;;
19758;SDS011;10038;42.662;23.278;2023-03-05T03:18:55;28.40;;;13.90;;
19758;SDS011;10038;42.662;23.278;2023-03-05T03:21:27;31.33;;;13.87;;
19758;SDS011;10038;42.662;23.278;2023-03-05T03:23:55;29.00;;;14.43;;
19758;SDS011;10038;42.662;23.278;2023-03-05T03:26:23;25.03;;;13.60;;
19758;SDS011;10038;42.662;23.278;2023-03-05T03:28:54;32.63;;;14.80;;
19758;SDS011;10038;42.662;23.278;2023-03-05T03:31:24;25.47;;;13.83;;
19758;SDS011;10038;42.662;23.278;2023-03-05T03:33:51;28.47;;;12.90;;
19758;SDS011;10038;42.662;23.278;2023-03-05T03:36:28;24.23;;;12.50;;
19758;SDS011;10038;42.662;23.278;2023-03-05T03:38:56;29.23;;;14.00;;
19758;SDS011;10038;42.662;23.278;2023-03-05T03:41:29;29.47;;;13.80;;
19758;SDS011;10038;42.662;23.278;2023-03-05T03:43:58;26.33;;;13.83;;
19758;SDS011;10038;42.662;23.278;2023-03-05T03:46:27;32.20;;;15.17;;
19758;SDS011;10038;42.662;23.278;2023-03-05T03:48:53;28.13;;;14.13;;
19758;SDS011;10038;42.662;23.278;2023-03-05T03:51:23;27.60;;;14.17;;
19758;SDS011;10038;42.662;23.278;2023-03-05T03:53:50;28.97;;;15.17;;
19758;SDS011;10038;42.662;23.278;2023-03-05T03:56:16;31.00;;;13.37;;
19758;SDS011;10038;42.662;23.278;2023-03-05T03:58:53;26.50;;;13.73;;
19758;SDS011;10038;42.662;23.278;2023-03-05T04:01:20;26.20;;;14.20;;
19758;SDS011;10038;42.662;23.278;2023-03-05T04:03:47;32.10;;;13.70;;
19758;SDS011;10038;42.662;23.278;2023-03-05T04:06:13;30.97;;;14.13;;
19758;SDS011;10038;42.662;23.278;2023-03-05T04:08:40;28.27;;;15.10;;
19758;SDS011;10038;42.662;23.278;2023-03-05T04:11:07;31.40;;;15.33;;
19758;SDS011;10038;42.662;23.278;2023-03-05T04:13:36;27.53;;;12.83;;
19758;SDS011;10038;42.662;23.278;2023-03-05T04:16:04;35.60;;;15.00;;
19758;SDS011;10038;42.662;23.278;2023-03-05T04:18:31;29.50;;;14.30;;
19758;SDS011;10038;42.662;23.278;2023-03-05T04:20:58;32.97;;;13.60;;
19758;SDS011;10038;42.662;23.278;2023-03-05T04:23:33;30.73;;;15.30;;
19758;SDS011;10038;42.662;23.278;2023-03-05T04:26:04;28.17;;;15.27;;
19758;SDS011;10038;42.662;23.278;2023-03-05T04:28:31;39.80;;;13.63;;
19758;SDS011;10038;42.662;23.278;2023-03-05T04:30:59;30.30;;;13.03;;
19758;SDS011;10038;42.662;23.278;2023-03-05T04:33:27;28.80;;;13.43;;
19758;SDS011;10038;42.662;23.278;2023-03-05T04:35:54;28.15;;;13.00;;
19758;SDS011;10038;42.662;23.278;2023-03-05T04:38:21;26.77;;;13.67;;
19758;SDS011;10038;42.662;23.278;2023-03-05T04:40:48;33.20;;;16.67;;
19758;SDS011;10038;42.662;23.278;2023-03-05T04:43:14;27.93;;;15.10;;
19758;SDS011;10038;42.662;23.278;2023-03-05T04:45:41;29.73;;;15.03;;
19758;SDS011;10038;42.662;23.278;2023-03-05T04:48:10;27.40;;;13.00;;
19758;SDS011;10038;42.662;23.278;2023-03-05T04:50:39;28.77;;;14.20;;
19758;SDS011;10038;42.662;23.278;2023-03-05T04:53:09;32.33;;;13.30;;
19758;SDS011;10038;42.662;23.278;2023-03-05T04:55:35;30.83;;;13.60;;
19758;SDS011;10038;42.662;23.278;2023-03-05T04:58:05;30.00;;;15.40;;
19758;SDS011;10038;42.662;23.278;2023-03-05T05:00:34;26.07;;;12.17;;
19758;SDS011;10038;42.662;23.278;2023-03-05T05:03:01;34.40;;;15.27;;
19758;SDS011;10038;42.662;23.278;2023-03-05T05:05:28;23.10;;;12.37;;
19758;SDS011;10038;42.662;23.278;2023-03-05T05:07:56;27.77;;;14.73;;
19758;SDS011;10038;42.662;23.278;2023-03-05T05:10:23;27.60;;;13.90;;
19758;SDS011;10038;42.662;23.278;2023-03-05T05:12:53;29.40;;;14.80;;
19758;SDS011;10038;42.662;23.278;2023-03-05T05:15:20;25.33;;;13.87;;
19758;SDS011;10038;42.662;23.278;2023-03-05T05:17:47;30.43;;;13.07;;
19758;SDS011;10038;42.662;23.278;2023-03-05T05:20:15;26.70;;;13.43;;
19758;SDS011;10038;42.662;23.278;2023-03-05T05:22:42;28.33;;;13.57;;
19758;SDS011;10038;42.662;23.278;2023-03-05T05:25:12;26.33;;;13.17;;
19758;SDS011;10038;42.662;23.278;2023-03-05T05:27:38;28.33;;;15.47;;
19758;SDS011;10038;42.662;23.278;2023-03-05T05:30:06;22.65;;;11.27;;
19758;SDS011;10038;42.662;23.278;2023-03-05T05:32:33;29.08;;;12.80;;
19758;SDS011;10038;42.662;23.278;2023-03-05T05:35:06;23.83;;;11.23;;
19758;SDS011;10038;42.662;23.278;2023-03-05T05:37:34;28.77;;;12.13;;
19758;SDS011;10038;42.662;23.278;2023-03-05T05:40:01;28.03;;;13.73;;
19758;SDS011;10038;42.662;23.278;2023-03-05T05:42:30;21.50;;;11.87;;
19758;SDS011;10038;42.662;23.278;2023-03-05T05:45:00;24.90;;;14.10;;
19758;SDS011;10038;42.662;23.278;2023-03-05T05:47:27;24.07;;;11.63;;
19758;SDS011;10038;42.662;23.278;2023-03-05T05:49:56;27.67;;;12.27;;
19758;SDS011;10038;42.662;23.278;2023-03-05T05:52:23;21.80;;;10.70;;
19758;SDS011;10038;42.662;23.278;2023-03-05T05:54:53;24.70;;;11.50;;
19758;SDS011;10038;42.662;23.278;2023-03-05T05:57:19;21.97;;;10.23;;
19758;SDS011;10038;42.662;23.278;2023-03-05T05:59:50;20.00;;;10.23;;
19758;SDS011;10038;42.662;23.278;2023-03-05T06:02:17;22.77;;;11.60;;
19758;SDS011;10038;42.662;23.278;2023-03-05T06:04:44;18.17;;;9.30;;
19758;SDS011;10038;42.662;23.278;2023-03-05T06:07:14;20.93;;;10.27;;
19758;SDS011;10038;42.662;23.278;2023-03-05T06:09:41;17.77;;;10.07;;
19758;SDS011;10038;42.662;23.278;2023-03-05T06:12:10;27.30;;;11.87;;
19758;SDS011;10038;42.662;23.278;2023-03-05T06:14:38;20.17;;;10.20;;
19758;SDS011;10038;42.662;23.278;2023-03-05T06:17:06;25.13;;;10.23;;
19758;SDS011;10038;42.662;23.278;2023-03-05T06:19:34;19.67;;;9.43;;
19758;SDS011;10038;42.662;23.278;2023-03-05T06:22:01;19.83;;;9.90;;
19758;SDS011;10038;42.662;23.278;2023-03-05T06:24:30;18.23;;;8.70;;
19758;SDS011;10038;42.662;23.278;2023-03-05T06:26:56;22.87;;;11.60;;
19758;SDS011;10038;42.662;23.278;2023-03-05T06:29:26;22.03;;;10.53;;
19758;SDS011;10038;42.662;23.278;2023-03-05T06:31:53;19.07;;;9.03;;
19758;SDS011;10038;42.662;23.278;2023-03-05T06:34:21;18.73;;;8.47;;
19758;SDS011;10038;42.662;23.278;2023-03-05T06:36:47;28.50;;;11.23;;
19758;SDS011;10038;42.662;23.278;2023-03-05T06:39:14;21.10;;;9.63;;
19758;SDS011;10038;42.662;23.278;2023-03-05T06:41:42;23.23;;;10.63;;
19758;SDS011;10038;42.662;23.278;2023-03-05T06:44:10;17.43;;;9.83;;
19758;SDS011;10038;42.662;23.278;2023-03-05T06:46:37;16.93;;;8.70;;
19758;SDS011;10038;42.662;23.278;2023-03-05T06:49:04;19.17;;;9.40;;
19758;SDS011;10038;42.662;23.278;2023-03-05T06:51:33;21.63;;;9.70;;
19758;SDS011;10038;42.662;23.278;2023-03-05T06:54:00;21.53;;;9.43;;
19758;SDS011;10038;42.662;23.278;2023-03-05T06:56:27;17.03;;;9.53;;
19758;SDS011;10038;42.662;23.278;2023-03-05T06:58:54;20.07;;;10.93;;
19758;SDS011;10038;42.662;23.278;2023-03-05T07:01:22;21.40;;;11.80;;
19758;SDS011;10038;42.662;23.278;2023-03-05T07:03:51;19.23;;;11.07;;
19758;SDS011;10038;42.662;23.278;2023-03-05T07:06:18;20.40;;;11.03;;
19758;SDS011;10038;42.662;23.278;2023-03-05T07:08:46;21.50;;;11.50;;
19758;SDS011;10038;42.662;23.278;2023-03-05T07:11:16;22.00;;;11.70;;
19758;SDS011;10038;42.662;23.278;2023-03-05T07:13:43;26.63;;;11.70;;
19758;SDS011;10038;42.662;23.278;2023-03-05T07:16:12;20.83;;;11.53;;
19758;SDS011;10038;42.662;23.278;2023-03-05T07:18:42;28.87;;;12.47;;
19758;SDS011;10038;42.662;23.278;2023-03-05T07:21:09;21.73;;;11.60;;
19758;SDS011;10038;42.662;23.278;2023-03-05T07:23:37;18.73;;;10.97;;
19758;SDS011;10038;42.662;23.278;2023-03-05T07:26:05;25.63;;;12.57;;
19758;SDS011;10038;42.662;23.278;2023-03-05T07:28:33;21.30;;;11.80;;
19758;SDS011;10038;42.662;23.278;2023-03-05T07:31:00;25.70;;;13.07;;
19758;SDS011;10038;42.662;23.278;2023-03-05T07:33:34;29.87;;;14.23;;
19758;SDS011;10038;42.662;23.278;2023-03-05T07:36:03;20.63;;;11.53;;
19758;SDS011;10038;42.662;23.278;2023-03-05T07:38:32;26.10;;;13.40;;
19758;SDS011;10038;42.662;23.278;2023-03-05T07:41:00;25.73;;;12.43;;
19758;SDS011;10038;42.662;23.278;2023-03-05T07:43:33;20.23;;;12.50;;
19758;SDS011;10038;42.662;23.278;2023-03-05T07:46:10;23.90;;;12.50;;
19758;SDS011;10038;42.662;23.278;2023-03-05T07:48:46;22.97;;;12.33;;
19758;SDS011;10038;42.662;23.278;2023-03-05T07:51:16;30.70;;;14.93;;
19758;SDS011;10038;42.662;23.278;2023-03-05T07:53:46;33.83;;;13.83;;
19758;SDS011;10038;42.662;23.278;2023-03-05T07:56:19;23.60;;;13.90;;
19758;SDS011;10038;42.662;23.278;2023-03-05T07:58:48;23.90;;;13.67;;
19758;SDS011;10038;42.662;23.278;2023-03-05T08:01:19;21.90;;;14.50;;
19758;SDS011;10038;42.662;23.278;2023-03-05T08:03:46;21.57;;;14.27;;
19758;SDS011;10038;42.662;23.278;2023-03-05T08:06:17;23.90;;;14.23;;
19758;SDS011;10038;42.662;23.278;2023-03-05T08:08:49;23.70;;;13.60;;
19758;SDS011;10038;42.662;23.278;2023-03-05T08:11:17;32.73;;;14.10;;
19758;SDS011;10038;42.662;23.278;2023-03-05T08:13:46;27.73;;;15.60;;
19758;SDS011;10038;42.662;23.278;2023-03-05T08:16:14;27.00;;;16.90;;
19758;SDS011;10038;42.662;23.278;2023-03-05T08:18:44;30.07;;;14.50;;
19758;SDS011;10038;42.662;23.278;2023-03-05T08:21:14;29.27;;;16.00;;
19758;SDS011;10038;42.662;23.278;2023-03-05T08:23:54;28.53;;;15.97;;
19758;SDS011;10038;42.662;23.278;2023-03-05T08:26:22;30.77;;;15.37;;
19758;SDS011;10038;42.662;23.278;2023-03-05T08:28:54;25.33;;;15.53;;
19758;SDS011;10038;42.662;23.278;2023-03-05T08:31:25;25.80;;;14.00;;
19758;SDS011;10038;42.662;23.278;2023-03-05T08:33:54;28.93;;;14.60;;
19758;SDS011;10038;42.662;23.278;2023-03-05T08:36:21;40.17;;;18.83;;
19758;SDS011;10038;42.662;23.278;2023-03-05T08:38:48;31.90;;;15.50;;
19758;SDS011;10038;42.662;23.278;2023-03-05T08:41:16;30.17;;;15.80;;
19758;SDS011;10038;42.662;23.278;2023-03-05T08:43:44;29.13;;;15.50;;
19758;SDS011;10038;42.662;23.278;2023-03-05T08:46:14;26.23;;;14.97;;
19758;SDS011;10038;42.662;23.278;2023-03-05T08:48:45;28.90;;;14.07;;
19758;SDS011;10038;42.662;23.278;2023-03-05T08:51:16;28.73;;;16.20;;
19758;SDS011;10038;42.662;23.278;2023-03-05T08:53:44;25.30;;;14.13;;
19758;SDS011;10038;42.662;23.278;2023-03-05T08:56:11;22.70;;;14.57;;
19758;SDS011;10038;42.662;23.278;2023-03-05T08:58:38;29.40;;;16.20;;
19758;SDS011;10038;42.662;23.278;2023-03-05T09:01:05;23.23;;;14.60;;
19758;SDS011;10038;42.662;23.278;2023-03-05T09:03:32;26.30;;;14.37;;
19758;SDS011;10038;42.662;23.278;2023-03-05T09:06:05;26.70;;;15.47;;
19758;SDS011;10038;42.662;23.278;2023-03-05T09:08:35;23.67;;;12.90;;
19758;SDS011;10038;42.662;23.278;2023-03-05T09:11:06;29.67;;;15.00;;
19758;SDS011;10038;42.662;23.278;2023-03-05T09:13:38;23.30;;;13.83;;
19758;SDS011;10038;42.662;23.278;2023-03-05T09:16:07;28.60;;;16.10;;
19758;SDS011;10038;42.662;23.278;2023-03-05T09:18:37;25.90;;;13.60;;
19758;SDS011;10038;42.662;23.278;2023-03-05T09:21:06;28.70;;;14.97;;
19758;SDS011;10038;42.662;23.278;2023-03-05T09:23:33;23.50;;;13.93;;
19758;SDS011;10038;42.662;23.278;2023-03-05T09:26:00;30.37;;;13.87;;
19758;SDS011;10038;42.662;23.278;2023-03-05T09:28:26;23.60;;;14.47;;
19758;SDS011;10038;42.662;23.278;2023-03-05T09:30:53;22.83;;;13.50;;
19758;SDS011;10038;42.662;23.278;2023-03-05T09:33:20;23.60;;;14.90;;
19758;SDS011;10038;42.662;23.278;2023-03-05T09:35:46;26.77;;;13.00;;
19758;SDS011;10038;42.662;23.278;2023-03-05T09:38:15;27.90;;;13.67;;
19758;SDS011;10038;42.662;23.278;2023-03-05T09:40:48;24.77;;;14.00;;
19758;SDS011;10038;42.662;23.278;2023-03-05T09:43:26;26.07;;;14.20;;
19758;SDS011;10038;42.662;23.278;2023-03-05T09:46:00;23.37;;;14.67;;
19758;SDS011;10038;42.662;23.278;2023-03-05T09:48:39;22.13;;;14.03;;
19758;SDS011;10038;42.662;23.278;2023-03-05T09:51:15;21.60;;;12.53;;
19758;SDS011;10038;42.662;23.278;2023-03-05T09:53:49;23.20;;;13.50;;
19758;SDS011;10038;42.662;23.278;2023-03-05T09:56:18;21.80;;;13.40;;
19758;SDS011;10038;42.662;23.278;2023-03-05T09:58:47;20.60;;;12.30;;
19758;SDS011;10038;42.662;23.278;2023-03-05T10:01:18;20.23;;;13.10;;
19758;SDS011;10038;42.662;23.278;2023-03-05T10:03:52;21.87;;;14.70;;
19758;SDS011;10038;42.662;23.278;2023-03-05T10:06:25;21.60;;;13.60;;
19758;SDS011;10038;42.662;23.278;2023-03-05T10:09:01;20.37;;;13.03;;
19758;SDS011;10038;42.662;23.278;2023-03-05T10:11:37;20.40;;;12.60;;
19758;SDS011;10038;42.662;23.278;2023-03-05T10:14:20;20.40;;;11.90;;
19758;SDS011;10038;42.662;23.278;2023-03-05T10:22:53;17.23;;;11.20;;
19758;SDS011;10038;42.662;23.278;2023-03-05T10:25:33;21.00;;;12.67;;
19758;SDS011;10038;42.662;23.278;2023-03-05T10:28:22;20.23;;;11.43;;
19758;SDS011;10038;42.662;23.278;2023-03-05T10:31:01;20.00;;;11.90;;
19758;SDS011;10038;42.662;23.278;2023-03-05T10:33:32;16.33;;;10.10;;
19758;SDS011;10038;42.662;23.278;2023-03-05T10:36:22;14.87;;;9.33;;
19758;SDS011;10038;42.662;23.278;2023-03-05T10:39:06;14.87;;;9.97;;
19758;SDS011;10038;42.662;23.278;2023-03-05T10:41:44;17.70;;;11.37;;
19758;SDS011;10038;42.662;23.278;2023-03-05T10:44:18;14.10;;;10.20;;
19758;SDS011;10038;42.662;23.278;2023-03-05T10:46:47;17.93;;;10.33;;
19758;SDS011;10038;42.662;23.278;2023-03-05T10:49:16;19.50;;;11.47;;
19758;SDS011;10038;42.662;23.278;2023-03-05T10:51:46;18.63;;;10.80;;
19758;SDS011;10038;42.662;23.278;2023-03-05T10:54:18;17.70;;;11.20;;
19758;SDS011;10038;42.662;23.278;2023-03-05T10:56:46;18.47;;;10.80;;
19758;SDS011;10038;42.662;23.278;2023-03-05T10:59:13;18.30;;;10.93;;
19758;SDS011;10038;42.662;23.278;2023-03-05T11:01:40;16.40;;;9.93;;
19758;SDS011;10038;42.662;23.278;2023-03-05T11:04:08;14.67;;;8.93;;
19758;SDS011;10038;42.662;23.278;2023-03-05T11:06:50;15.27;;;8.80;;
19758;SDS011;10038;42.662;23.278;2023-03-05T11:09:21;20.17;;;9.80;;
19758;SDS011;10038;42.662;23.278;2023-03-05T11:14:36;15.00;;;9.10;;
19758;SDS011;10038;42.662;23.278;2023-03-05T11:17:21;16.50;;;9.27;;
19758;SDS011;10038;42.662;23.278;2023-03-05T11:19:48;15.40;;;9.43;;
19758;SDS011;10038;42.662;23.278;2023-03-05T11:22:16;21.63;;;11.10;;
19758;SDS011;10038;42.662;23.278;2023-03-05T11:24:44;21.07;;;10.97;;
19758;SDS011;10038;42.662;23.278;2023-03-05T11:27:29;18.90;;;11.50;;
19758;SDS011;10038;42.662;23.278;2023-03-05T11:29:58;19.30;;;10.30;;
19758;SDS011;10038;42.662;23.278;2023-03-05T11:32:25;17.70;;;11.10;;
19758;SDS011;10038;42.662;23.278;2023-03-05T11:34:53;18.70;;;11.30;;
19758;SDS011;10038;42.662;23.278;2023-03-05T11:37:23;17.40;;;11.27;;
19758;SDS011;10038;42.662;23.278;2023-03-05T11:40:03;16.40;;;9.80;;
19758;SDS011;10038;42.662;23.278;2023-03-05T11:42:31;20.73;;;10.10;;
19758;SDS011;10038;42.662;23.278;2023-03-05T11:45:00;17.67;;;12.73;;
19758;SDS011;10038;42.662;23.278;2023-03-05T11:47:27;19.90;;;10.40;;
19758;SDS011;10038;42.662;23.278;2023-03-05T11:49:59;17.63;;;9.90;;
19758;SDS011;10038;42.662;23.278;2023-03-05T11:52:28;15.80;;;10.13;;
19758;SDS011;10038;42.662;23.278;2023-03-05T11:54:58;14.80;;;10.17;;
19758;SDS011;10038;42.662;23.278;2023-03-05T11:57:27;19.00;;;10.60;;
19758;SDS011;10038;42.662;23.278;2023-03-05T11:59:59;15.30;;;10.33;;
19758;SDS011;10038;42.662;23.278;2023-03-05T12:02:32;16.43;;;9.60;;
19758;SDS011;10038;42.662;23.278;2023-03-05T12:04:59;18.03;;;11.03;;
19758;SDS011;10038;42.662;23.278;2023-03-05T12:07:29;14.33;;;9.50;;
19758;SDS011;10038;42.662;23.278;2023-03-05T12:09:59;13.90;;;8.80;;
19758;SDS011;10038;42.662;23.278;2023-03-05T12:12:29;14.80;;;9.33;;
19758;SDS011;10038;42.662;23.278;2023-03-05T12:15:04;18.23;;;10.13;;
19758;SDS011;10038;42.662;23.278;2023-03-05T12:17:33;17.97;;;11.10;;
19758;SDS011;10038;42.662;23.278;2023-03-05T12:20:02;18.53;;;11.47;;
19758;SDS011;10038;42.662;23.278;2023-03-05T12:22:33;19.10;;;10.50;;
19758;SDS011;10038;42.662;23.278;2023-03-05T12:27:46;16.50;;;10.90;;
19758;SDS011;10038;42.662;23.278;2023-03-05T12:30:32;17.53;;;11.00;;
19758;SDS011;10038;42.662;23.278;2023-03-05T12:33:30;17.80;;;10.37;;
19758;SDS011;10038;42.662;23.278;2023-03-05T12:38:38;14.90;;;9.60;;
19758;SDS011;10038;42.662;23.278;2023-03-05T12:44:17;14.30;;;8.70;;
19758;SDS011;10038;42.662;23.278;2023-03-05T12:46:45;14.40;;;9.63;;
19758;SDS011;10038;42.662;23.278;2023-03-05T12:49:32;16.57;;;9.63;;
19758;SDS011;10038;42.662;23.278;2023-03-05T12:52:00;15.50;;;9.60;;
19758;SDS011;10038;42.662;23.278;2023-03-05T12:54:29;14.03;;;8.27;;
19758;SDS011;10038;42.662;23.278;2023-03-05T12:56:57;14.13;;;8.70;;
19758;SDS011;10038;42.662;23.278;2023-03-05T12:59:26;17.63;;;9.57;;
19758;SDS011;10038;42.662;23.278;2023-03-05T13:01:54;16.33;;;11.13;;
19758;SDS011;10038;42.662;23.278;2023-03-05T13:04:22;15.97;;;9.50;;
19758;SDS011;10038;42.662;23.278;2023-03-05T13:06:58;15.50;;;9.93;;
19758;SDS011;10038;42.662;23.278;2023-03-05T13:09:26;17.63;;;9.93;;
19758;SDS011;10038;42.662;23.278;2023-03-05T13:11:55;14.40;;;8.60;;
19758;SDS011;10038;42.662;23.278;2023-03-05T13:14:27;16.27;;;10.67;;
19758;SDS011;10038;42.662;23.278;2023-03-05T13:16:54;14.43;;;8.43;;
19758;SDS011;10038;42.662;23.278;2023-03-05T13:19:21;15.60;;;9.90;;
19758;SDS011;10038;42.662;23.278;2023-03-05T13:21:56;15.23;;;8.27;;
19758;SDS011;10038;42.662;23.278;2023-03-05T13:24:24;13.27;;;7.90;;
19758;SDS011;10038;42.662;23.278;2023-03-05T13:26:51;12.97;;;7.40;;
19758;SDS011;10038;42.662;23.278;2023-03-05T13:29:18;15.43;;;9.87;;
19758;SDS011;10038;42.662;23.278;2023-03-05T13:31:45;13.73;;;8.90;;
19758;SDS011;10038;42.662;23.278;2023-03-05T13:34:14;16.37;;;9.50;;
19758;SDS011;10038;42.662;23.278;2023-03-05T13:36:44;20.33;;;10.00;;
19758;SDS011;10038;42.662;23.278;2023-03-05T13:39:17;18.43;;;11.10;;
19758;SDS011;10038;42.662;23.278;2023-03-05T13:41:54;18.80;;;10.60;;
19758;SDS011;10038;42.662;23.278;2023-03-05T13:44:21;16.73;;;10.40;;
19758;SDS011;10038;42.662;23.278;2023-03-05T13:46:48;19.77;;;10.97;;
19758;SDS011;10038;42.662;23.278;2023-03-05T13:49:16;18.03;;;10.53;;
19758;SDS011;10038;42.662;23.278;2023-03-05T13:51:44;22.77;;;11.83;;
19758;SDS011;10038;42.662;23.278;2023-03-05T13:54:12;18.13;;;9.87;;
19758;SDS011;10038;42.662;23.278;2023-03-05T13:56:46;17.27;;;10.83;;
19758;SDS011;10038;42.662;23.278;2023-03-05T13:59:17;16.47;;;9.80;;
19758;SDS011;10038;42.662;23.278;2023-03-05T14:01:45;17.97;;;10.47;;
19758;SDS011;10038;42.662;23.278;2023-03-05T14:04:17;19.57;;;10.27;;
19758;SDS011;10038;42.662;23.278;2023-03-05T14:06:46;22.07;;;13.77;;
19758;SDS011;10038;42.662;23.278;2023-03-05T14:09:17;22.37;;;12.50;;
19758;SDS011;10038;42.662;23.278;2023-03-05T14:11:50;20.57;;;11.03;;
19758;SDS011;10038;42.662;23.278;2023-03-05T14:14:20;17.90;;;10.90;;
19758;SDS011;10038;42.662;23.278;2023-03-05T14:16:47;20.97;;;11.97;;
19758;SDS011;10038;42.662;23.278;2023-03-05T14:19:27;28.83;;;13.50;;
19758;SDS011;10038;42.662;23.278;2023-03-05T14:21:56;25.50;;;11.60;;
19758;SDS011;10038;42.662;23.278;2023-03-05T14:24:24;19.80;;;11.23;;
19758;SDS011;10038;42.662;23.278;2023-03-05T14:26:52;20.07;;;11.53;;
19758;SDS011;10038;42.662;23.278;2023-03-05T14:29:22;20.40;;;10.93;;
19758;SDS011;10038;42.662;23.278;2023-03-05T14:31:51;16.93;;;11.30;;
19758;SDS011;10038;42.662;23.278;2023-03-05T14:34:22;20.53;;;11.93;;
19758;SDS011;10038;42.662;23.278;2023-03-05T14:36:49;18.80;;;11.37;;
19758;SDS011;10038;42.662;23.278;2023-03-05T14:39:25;20.93;;;11.47;;
19758;SDS011;10038;42.662;23.278;2023-03-05T14:41:52;19.47;;;11.07;;
19758;SDS011;10038;42.662;23.278;2023-03-05T14:44:19;17.93;;;11.80;;